Time;durP1;ratioP1;P1;durP2;ratioP2;P2;SDS_P1;SDS_P2;PMS_P1;PMS_P2;Temp;Humidity;BMP_temperature;BMP_pressure;BME280_temperature;BME280_humidity;BME280_pressure;Samples;Min_cycle;Max_cycle;Signal;HPM_P1;HPM_P2
2022/06/02 00:00:19;;;;;;;14.27;11.13;;;;;;;16.93;55.26;102012.16;4801047;29;20034;-72
2022/06/02 00:03:04;;;;;;;17.00;11.48;;;;;;;16.88;54.62;102012.06;4801069;29;20604;-72
2022/06/02 00:06:09;;;;;;;12.93;10.90;;;;;;;16.94;54.87;102011.13;4800925;29;20062;-71
2022/06/02 00:08:56;;;;;;;13.27;11.55;;;;;;;17.07;55.34;102011.69;4751615;30;20048;-71
2022/06/02 00:11:36;;;;;;;15.07;11.88;;;;;;;16.97;55.96;102007.91;4764966;29;20043;-72
2022/06/02 00:14:17;;;;;;;15.27;12.25;;;;;;;17.21;53.89;102007.63;4765197;29;20183;-70
2022/06/02 00:17:01;;;;;;;13.30;11.90;;;;;;;17.02;54.54;102008.84;4765635;30;20441;-72
2022/06/02 00:19:48;;;;;;;12.75;11.45;;;;;;;17.06;54.34;102015.44;4765037;30;20075;-71
2022/06/02 00:22:36;;;;;;;13.82;11.45;;;;;;;17.13;54.66;102018.88;4766257;29;20115;-72
2022/06/02 00:25:25;;;;;;;14.35;12.77;;;;;;;16.91;55.98;102022.44;4790360;29;20071;-71
2022/06/02 00:28:03;;;;;;;16.60;12.02;;;;;;;17.12;55.02;102024.56;4800941;29;20047;-71
2022/06/02 00:30:42;;;;;;;12.55;11.25;;;;;;;16.98;54.72;102028.59;4800850;29;20042;-72
2022/06/02 00:33:35;;;;;;;16.00;11.63;;;;;;;16.85;54.63;102036.97;4803420;29;20051;-71
2022/06/02 00:36:10;;;;;;;15.00;11.77;;;;;;;16.76;54.69;102033.81;4865745;29;20047;-71
2022/06/02 00:38:38;;;;;;;16.02;11.68;;;;;;;16.76;55.12;102030.25;4911542;29;20032;-71
2022/06/02 00:41:19;;;;;;;13.48;11.45;;;;;;;16.85;55.16;102037.78;4911622;29;20054;-71
2022/06/02 00:43:55;;;;;;;;;;;;;;;16.57;55.92;102037.69;4925062;29;20035;-72
2022/06/02 00:46:20;;;;;;;15.10;11.50;;;;;;;16.71;55.21;102036.38;4967308;28;19935;-71
2022/06/02 00:49:06;;;;;;;17.40;12.85;;;;;;;16.94;54.57;102041.00;4994064;28;20034;-72
2022/06/02 00:51:40;;;;;;;13.90;12.15;;;;;;;16.59;55.76;102043.69;5014243;28;20050;-71
2022/06/02 00:57:39;;;;;;;14.57;12.45;;;;;;;16.32;56.75;102043.28;5014079;28;20092;-72
2022/06/02 01:00:16;;;;;;;16.98;12.55;;;;;;;16.33;56.79;102038.69;5012673;28;20044;-71
2022/06/02 01:02:51;;;;;;;14.50;12.20;;;;;;;16.57;55.72;102040.38;5014222;28;20040;-72
2022/06/02 01:05:35;;;;;;;14.90;12.85;;;;;;;16.44;55.56;102038.72;5006260;28;20073;-71
2022/06/02 01:08:11;;;;;;;14.32;12.45;;;;;;;16.43;55.88;102042.47;5013745;28;20021;-69
2022/06/02 01:10:57;;;;;;;15.20;12.20;;;;;;;16.25;56.21;102044.47;5014567;28;20120;-72
2022/06/02 01:13:36;;;;;;;12.32;10.27;;;;;;;16.34;55.37;102046.59;5013852;28;20065;-70
2022/06/02 01:16:16;;;;;;;12.90;11.18;;;;;;;16.30;55.12;102050.00;5013776;28;20057;-71
2022/06/02 01:19:06;;;;;;;15.57;12.23;;;;;;;15.74;58.09;102055.88;5013952;28;20434;-70
2022/06/02 01:21:52;;;;;;;15.65;12.60;;;;;;;16.15;57.02;102055.88;5013710;28;21002;-71
2022/06/02 01:24:38;;;;;;;17.75;12.80;;;;;;;16.11;56.39;102062.84;5013545;28;20042;-71
2022/06/02 01:27:15;;;;;;;17.08;13.73;;;;;;;15.98;57.68;102056.78;5013649;28;20062;-71
2022/06/02 01:30:06;;;;;;;13.63;11.73;;;;;;;16.10;57.46;102065.75;4995810;28;20124;-71
2022/06/02 01:32:47;;;;;;;15.65;13.88;;;;;;;16.25;56.64;102058.03;5013279;28;20111;-71
2022/06/02 01:35:52;;;;;;;16.92;13.25;;;;;;;16.25;55.85;102058.88;5005166;28;20126;-71
2022/06/02 01:38:32;;;;;;;14.88;12.63;;;;;;;16.21;55.68;102063.09;4971571;28;20460;-71
2022/06/02 01:41:12;;;;;;;17.17;13.05;;;;;;;16.35;55.84;102061.81;4972223;28;20046;-71
2022/06/02 01:43:56;;;;;;;19.60;14.18;;;;;;;16.31;56.26;102063.31;4971718;28;20076;-71
2022/06/02 01:46:23;;;;;;;16.45;13.48;;;;;;;16.27;55.22;102058.63;4971618;28;20039;-71
2022/06/02 01:49:22;;;;;;;15.30;13.13;;;;;;;16.03;55.74;102057.75;4971133;28;20038;-70
2022/06/02 01:52:13;;;;;;;18.75;13.25;;;;;;;16.13;55.35;102052.59;4971461;28;20046;-72
2022/06/02 01:54:57;;;;;;;;;;;;;;;16.22;55.71;102053.06;4972096;28;20050;-71
2022/06/02 01:57:28;;;;;;;13.10;11.48;;;;;;;16.04;55.40;102053.94;4971515;28;20358;-71
2022/06/02 02:00:02;;;;;;;;;;;;;;;16.08;55.82;102057.84;4970967;28;20090;-71
2022/06/02 02:02:56;;;;;;;16.27;12.32;;;;;;;15.98;55.41;102051.38;4978783;28;20308;-72
2022/06/02 02:05:27;;;;;;;14.90;12.82;;;;;;;16.02;55.27;102055.25;4990390;28;20048;-72
2022/06/02 02:08:17;;;;;;;15.52;12.68;;;;;;;15.86;55.23;102053.19;4977222;28;20039;-72
2022/06/02 02:11:06;;;;;;;20.48;12.65;;;;;;;15.87;55.35;102054.84;4971397;28;20609;-72
2022/06/02 02:14:03;;;;;;;14.07;12.07;;;;;;;15.91;55.03;102059.59;4971108;28;20062;-71
2022/06/02 02:16:37;;;;;;;15.82;12.80;;;;;;;15.70;55.81;102058.19;5010404;28;20518;-71
2022/06/02 02:19:20;;;;;;;14.27;11.55;;;;;;;15.65;56.96;102054.53;5012650;28;20100;-71
2022/06/02 02:22:03;;;;;;;15.25;11.32;;;;;;;15.74;55.80;102053.97;5012809;28;20042;-70
2022/06/02 02:24:32;;;;;;;13.50;11.57;;;;;;;15.75;55.96;102049.38;4992854;28;20038;-71
2022/06/02 02:27:01;;;;;;;14.40;12.35;;;;;;;15.74;55.68;102059.38;4993047;28;20060;-71
2022/06/02 02:29:33;;;;;;;16.13;13.48;;;;;;;15.73;55.96;102062.34;4993024;28;20578;-71
2022/06/02 02:32:10;;;;;;;18.88;13.52;;;;;;;14.89;59.31;102063.09;4993138;28;20060;-71
2022/06/02 02:34:54;;;;;;;14.85;12.82;;;;;;;15.41;58.07;102064.38;4992661;28;20137;-71
2022/06/02 02:37:19;;;;;;;14.48;12.30;;;;;;;15.67;56.29;102058.66;4992783;28;20057;-72
2022/06/02 02:39:53;;;;;;;15.35;13.38;;;;;;;15.96;55.69;102065.13;4992670;28;20129;-71
2022/06/02 02:42:33;;;;;;;18.45;13.18;;;;;;;15.83;55.92;102063.44;4994010;28;20038;-71
2022/06/02 02:44:58;;;;;;;17.73;14.43;;;;;;;15.65;56.55;102060.78;5011910;28;20116;-72
2022/06/02 02:47:32;;;;;;;16.83;13.77;;;;;;;15.62;55.78;102063.97;5011788;28;20113;-71
2022/06/02 02:50:10;;;;;;;19.23;13.82;;;;;;;15.67;56.07;102063.25;5012211;28;20275;-71
2022/06/02 02:52:48;;;;;;;17.83;13.38;;;;;;;15.63;55.64;102056.63;5012374;28;20132;-71
2022/06/02 02:55:19;;;;;;;18.35;13.52;;;;;;;15.62;55.47;102055.81;5011816;28;20044;-71
2022/06/02 02:57:52;;;;;;;16.52;13.40;;;;;;;15.67;54.91;102063.25;5011877;28;20097;-70
2022/06/02 03:00:23;;;;;;;17.30;13.02;;;;;;;15.76;55.41;102064.59;5011760;28;20510;-71
2022/06/02 03:03:22;;;;;;;15.80;12.63;;;;;;;15.65;55.54;102077.03;5011981;28;20034;-71
2022/06/02 03:05:53;;;;;;;18.05;13.13;;;;;;;15.67;55.30;102072.22;5011883;28;20046;-71
2022/06/02 03:08:44;;;;;;;15.35;12.93;;;;;;;15.48;55.61;102076.00;5012020;28;20025;-71
2022/06/02 03:11:28;;;;;;;19.25;12.88;;;;;;;15.50;55.44;102075.78;5011385;28;20041;-70
2022/06/02 03:14:27;;;;;;;17.90;13.30;;;;;;;15.54;55.07;102068.84;5011983;28;20067;-72
2022/06/02 03:17:03;;;;;;;16.70;13.40;;;;;;;15.49;55.09;102074.94;5011687;28;20065;-71
2022/06/02 03:20:02;;;;;;;16.25;12.73;;;;;;;15.43;54.95;102072.34;5011600;28;20075;-71
2022/06/02 03:22:56;;;;;;;17.70;12.65;;;;;;;15.38;55.65;102083.81;5011247;28;20034;-71
2022/06/02 03:25:38;;;;;;;16.35;12.63;;;;;;;15.41;55.33;102085.25;5011372;28;20058;-71
2022/06/02 03:28:22;;;;;;;15.90;13.40;;;;;;;15.40;56.08;102083.56;5011029;28;20052;-71
2022/06/02 03:31:31;;;;;;;19.20;15.38;;;;;;;15.43;57.32;102092.09;5011392;28;20041;-71
2022/06/02 03:34:00;;;;;;;16.15;12.70;;;;;;;15.53;56.23;102094.28;5011098;28;20057;-71
2022/06/02 03:36:58;;;;;;;16.45;14.10;;;;;;;15.68;55.60;102094.72;5010956;28;20460;-72
2022/06/02 03:39:29;;;;;;;17.58;13.43;;;;;;;15.68;55.52;102092.00;5017471;28;20048;-71
2022/06/02 03:41:59;;;;;;;16.50;14.43;;;;;;;15.67;56.28;102093.06;5030575;28;20034;-71
2022/06/02 03:44:56;;;;;;;18.65;15.13;;;;;;;15.58;56.00;102095.28;5029491;28;20520;-72
2022/06/02 03:47:39;;;;;;;17.35;14.30;;;;;;;15.61;55.53;102097.50;5030512;28;20053;-71
2022/06/02 03:50:43;;;;;;;15.38;12.15;;;;;;;15.61;55.57;102104.81;5030219;28;20053;-71
2022/06/02 03:53:33;;;;;;;17.30;13.57;;;;;;;15.58;55.16;102097.16;5030580;28;20053;-73
2022/06/02 03:56:22;;;;;;;15.80;13.10;;;;;;;15.59;56.59;102105.03;5031031;28;20037;-71
2022/06/02 03:59:15;;;;;;;16.25;13.90;;;;;;;15.64;56.38;102107.91;5025009;28;20045;-71
2022/06/02 04:01:46;;;;;;;16.80;13.40;;;;;;;15.60;55.80;102114.00;5029119;28;20074;-72
2022/06/02 04:04:42;;;;;;;18.30;14.05;;;;;;;15.74;55.75;102119.00;5031156;28;20040;-72
2022/06/02 04:07:35;;;;;;;16.63;13.77;;;;;;;15.71;55.99;102115.94;5031086;28;20041;-72
2022/06/02 04:10:19;;;;;;;17.55;13.75;;;;;;;15.75;56.09;102122.56;5031103;28;20137;-72
2022/06/02 04:16:15;;;;;;;15.93;13.80;;;;;;;15.76;55.89;102116.09;5031249;28;20107;-71
2022/06/02 04:18:59;;;;;;;16.33;13.80;;;;;;;15.81;56.50;102119.78;5031230;28;20047;-72
2022/06/02 04:21:43;;;;;;;17.55;14.40;;;;;;;15.89;55.78;102121.34;5030305;28;20121;-71
2022/06/02 04:24:49;;;;;;;18.90;14.40;;;;;;;16.23;54.91;102122.53;5034218;28;20102;-72
2022/06/02 04:27:35;;;;;;;21.75;14.57;;;;;;;16.40;54.90;102128.94;4953682;29;20043;-72
2022/06/02 04:30:10;;;;;;;16.92;13.70;;;;;;;16.20;55.79;102131.13;4953646;28;20495;-71
2022/06/02 04:32:49;;;;;;;18.27;14.65;;;;;;;16.44;54.79;102138.28;4947643;28;20087;-71
2022/06/02 04:35:30;;;;;;;17.95;14.88;;;;;;;16.61;54.76;102129.25;4950508;28;20044;-72
2022/06/02 04:38:18;;;;;;;19.92;15.48;;;;;;;16.64;55.10;102141.53;4950116;28;20089;-71
2022/06/02 04:40:54;;;;;;;17.92;14.75;;;;;;;16.53;55.77;102145.03;4946552;28;20110;-71
2022/06/02 04:43:38;;;;;;;19.20;14.57;;;;;;;16.60;55.61;102151.22;4947395;28;20040;-71
2022/06/02 04:46:26;;;;;;;19.20;16.05;;;;;;;16.76;54.70;102147.81;4946533;28;20108;-72
2022/06/02 04:49:26;;;;;;;18.67;14.90;;;;;;;16.86;55.03;102153.50;4942779;29;20054;-71
2022/06/02 04:52:20;;;;;;;21.23;15.65;;;;;;;16.86;55.54;102158.94;4945924;28;20112;-72
2022/06/02 04:55:04;;;;;;;19.73;15.20;;;;;;;16.94;54.76;102153.16;4948206;28;20079;-71
2022/06/02 04:57:39;;;;;;;17.80;15.15;;;;;;;17.16;53.98;102156.13;4951134;28;20039;-70
2022/06/02 05:00:20;;;;;;;20.83;16.15;;;;;;;17.06;54.32;102161.31;4951708;28;20039;-72
2022/06/02 05:03:07;;;;;;;19.90;15.18;;;;;;;17.10;54.77;102167.94;4953450;29;20050;-71
2022/06/02 05:05:43;;;;;;;20.83;16.08;;;;;;;17.04;55.59;102169.66;5014178;28;20045;-72
2022/06/02 05:08:46;;;;;;;20.60;17.02;;;;;;;17.16;55.48;102175.13;5014326;28;20091;-71
2022/06/02 05:11:33;;;;;;;20.25;16.73;;;;;;;17.18;55.47;102167.53;4985094;28;20392;-72
2022/06/02 05:14:30;;;;;;;24.48;17.05;;;;;;;17.32;55.07;102168.97;4988179;28;20514;-70
2022/06/02 05:17:13;;;;;;;21.05;17.10;;;;;;;17.57;55.51;102164.16;5000951;28;20300;-72
2022/06/02 05:20:17;;;;;;;21.30;17.08;;;;;;;17.64;54.41;102166.72;4999723;28;20833;-70
2022/06/02 05:23:11;;;;;;;23.73;18.40;;;;;;;17.72;55.48;102171.78;4909593;29;20047;-71
2022/06/02 05:25:46;;;;;;;25.95;18.55;;;;;;;17.73;55.40;102168.81;4894852;29;20048;-71
2022/06/02 05:28:49;;;;;;;23.95;17.63;;;;;;;17.98;54.39;102182.13;4895739;29;20063;-70
2022/06/02 05:31:40;;;;;;;24.38;18.52;;;;;;;18.07;54.59;102173.34;4895691;29;20037;-71
2022/06/02 05:34:59;;;;;;;24.55;17.90;;;;;;;17.59;56.98;102191.91;4889931;29;20045;-71
2022/06/02 05:37:44;;;;;;;24.08;19.35;;;;;;;17.52;57.64;102197.47;4833687;29;20049;-71
2022/06/02 05:40:38;;;;;;;26.58;19.77;;;;;;;17.63;57.11;102195.78;4836757;29;20034;-70
2022/06/02 05:43:31;;;;;;;30.85;19.50;;;;;;;17.91;56.47;102201.28;4839414;29;20045;-70
2022/06/02 05:46:33;;;;;;;24.85;20.13;;;;;;;18.38;54.86;102193.78;4839428;29;20050;-71
2022/06/02 05:49:19;;;;;;;27.30;21.15;;;;;;;18.63;54.46;102197.03;4840654;29;20052;-69
2022/06/02 05:52:05;;;;;;;29.25;21.40;;;;;;;18.73;54.62;102193.63;4846116;29;20053;-73
2022/06/02 05:54:52;;;;;;;27.30;20.30;;;;;;;18.69;54.50;102206.91;4849081;29;20121;-73
2022/06/02 05:57:20;;;;;;;23.42;18.42;;;;;;;18.68;54.20;102207.16;4850142;29;20046;-74
2022/06/02 05:59:55;;;;;;;24.42;19.00;;;;;;;18.57;55.02;102197.16;4867653;29;20144;-70
2022/06/02 06:02:26;;;;;;;26.45;18.55;;;;;;;18.62;53.99;102199.97;4881909;29;20044;-72
2022/06/02 06:05:12;;;;;;;24.60;18.02;;;;;;;18.50;54.44;102201.91;4876732;29;20049;-72
2022/06/02 06:08:15;;;;;;;23.48;18.27;;;;;;;18.45;55.26;102204.56;4911695;29;20056;-72
2022/06/02 06:11:14;;;;;;;20.55;16.02;;;;;;;18.99;53.60;102215.59;4942968;28;20512;-72
2022/06/02 06:14:23;;;;;;;17.67;14.52;;;;;;;18.98;52.76;102218.56;4983988;28;20062;-70
2022/06/02 06:17:10;;;;;;;19.05;13.20;;;;;;;18.71;52.94;102212.13;4903595;29;20139;-71
2022/06/02 06:19:40;;;;;;;18.65;12.68;;;;;;;19.21;51.26;102216.50;4896503;29;20081;-71
2022/06/02 06:22:24;;;;;;;13.88;11.55;;;;;;;19.69;50.37;102220.53;4900784;29;20040;-71
2022/06/02 06:25:02;;;;;;;13.25;9.35;;;;;;;18.89;51.55;102209.16;4897087;29;20044;-71
2022/06/02 06:28:01;;;;;;;11.13;9.38;;;;;;;19.58;49.56;102208.63;4892536;29;20045;-71
2022/06/02 06:30:54;;;;;;;15.23;10.40;;;;;;;19.79;49.58;102212.47;4893242;29;20138;-73
2022/06/02 06:33:38;;;;;;;12.55;8.90;;;;;;;19.40;49.89;102211.63;4892594;29;20054;-71
2022/06/02 06:36:23;;;;;;;15.40;8.30;;;;;;;19.53;49.81;102210.47;4902135;29;20111;-72
2022/06/02 06:39:03;;;;;;;10.75;8.93;;;;;;;19.60;49.09;102220.13;4911453;29;20402;-71
2022/06/02 06:41:46;;;;;;;18.35;9.85;;;;;;;19.66;48.77;102219.13;4911491;29;20036;-69
2022/06/02 06:44:38;;;;;;;10.48;8.65;;;;;;;18.29;50.89;102217.84;4910864;29;20058;-72
2022/06/02 06:47:09;;;;;;;12.68;8.95;;;;;;;19.33;49.54;102212.88;4933793;28;20030;-71
2022/06/02 06:49:37;;;;;;;;;;;;;;;19.35;49.34;102216.19;5013653;28;20065;-70
2022/06/02 06:52:33;;;;;;;12.95;8.88;;;;;;;19.85;48.28;102217.72;5029836;28;19916;-71
2022/06/02 06:55:36;;;;;;;11.98;7.90;;;;;;;19.65;48.92;102219.38;5029599;28;20037;-72
2022/06/02 06:58:15;;;;;;;6.97;4.60;;;;;;;18.60;50.75;102221.16;5030032;28;20060;-72
2022/06/02 07:00:54;;;;;;;5.40;4.55;;;;;;;18.93;49.36;102227.47;5029934;28;20061;-72
2022/06/02 07:03:38;;;;;;;5.97;5.07;;;;;;;19.43;47.50;102227.50;5030158;28;20046;-71
2022/06/02 07:06:33;;;;;;;5.38;4.88;;;;;;;19.16;48.92;102235.50;5029272;28;20035;-72
2022/06/02 07:09:10;;;;;;;7.43;5.80;;;;;;;19.90;47.91;102226.00;5029207;28;20029;-72
2022/06/02 07:14:50;;;;;;;5.97;4.50;;;;;;;20.04;46.21;102226.44;5028028;28;20437;-71
2022/06/02 07:17:36;;;;;;;5.72;4.65;;;;;;;20.46;45.09;102232.16;5029532;28;20041;-71
2022/06/02 07:20:12;;;;;;;4.38;2.25;;;;;;;20.13;44.89;102239.38;5029491;28;20026;-71
2022/06/02 07:23:18;;;;;;;3.40;2.38;;;;;;;20.16;43.79;102235.31;5029835;28;20025;-71
2022/06/02 07:26:03;;;;;;;5.60;3.72;;;;;;;19.91;44.65;102246.72;5004254;28;20049;-72
2022/06/02 07:28:37;;;;;;;4.30;3.30;;;;;;;20.18;44.74;102246.81;5008482;28;20045;-71
2022/06/02 07:31:20;;;;;;;5.00;3.10;;;;;;;19.17;46.25;102252.69;5009261;28;20091;-73
2022/06/02 07:33:52;;;;;;;4.40;2.97;;;;;;;19.46;46.16;102250.72;5006919;28;20037;-73
2022/06/02 07:36:39;;;;;;;6.05;3.28;;;;;;;19.98;43.89;102250.13;4996326;28;20111;-72
2022/06/02 07:39:07;;;;;;;3.22;3.03;;;;;;;19.93;44.20;102244.56;4996407;28;20038;-71
2022/06/02 07:42:02;;;;;;;6.03;3.25;;;;;;;20.51;42.64;102252.13;4989864;28;20039;-70
2022/06/02 07:44:57;;;;;;;5.35;3.53;;;;;;;20.60;42.58;102249.78;5007609;28;20030;-71
2022/06/02 07:47:46;;;;;;;5.72;2.55;;;;;;;19.93;42.04;102251.97;4991385;28;20120;-73
2022/06/02 07:50:29;;;;;;;7.72;2.97;;;;;;;20.20;43.54;102260.22;5000960;28;20092;-71
2022/06/02 07:52:54;;;;;;;8.35;3.13;;;;;;;19.32;45.21;102261.09;5008546;28;20026;-70
2022/06/02 07:55:49;;;;;;;3.38;3.05;;;;;;;20.25;43.60;102254.81;5009077;28;20057;-72
2022/06/02 07:58:55;;;;;;;6.68;3.67;;;;;;;21.31;40.52;102251.25;5005022;28;20030;-71
2022/06/02 08:01:20;;;;;;;3.85;3.45;;;;;;;21.27;41.51;102247.38;5007608;28;20041;-72
2022/06/02 08:04:10;;;;;;;4.55;4.10;;;;;;;21.13;41.78;102255.22;5006576;28;20033;-73
2022/06/02 08:06:42;;;;;;;4.45;3.03;;;;;;;21.42;41.49;102261.19;5007009;28;20103;-71
2022/06/02 08:09:34;;;;;;;5.60;2.63;;;;;;;20.94;41.23;102259.38;5006640;28;20132;-72
2022/06/02 08:12:21;;;;;;;5.47;2.45;;;;;;;21.76;39.69;102260.59;4990604;28;20028;-71
2022/06/02 08:15:00;;;;;;;6.45;3.28;;;;;;;20.91;43.26;102257.19;5008054;28;20041;-72
2022/06/02 08:17:37;;;;;;;7.57;4.10;;;;;;;21.14;42.76;102262.34;5003965;28;20045;-72
2022/06/02 08:20:21;;;;;;;3.45;3.15;;;;;;;20.54;44.20;102270.72;5004171;28;20040;-71
2022/06/02 08:23:25;;;;;;;4.20;3.80;;;;;;;20.96;42.66;102263.53;5000121;28;20478;-72
2022/06/02 08:26:08;;;;;;;2.97;2.10;;;;;;;20.84;42.30;102273.78;4934796;29;20076;-72
2022/06/02 08:28:43;;;;;;;3.58;1.60;;;;;;;20.92;40.85;102275.22;4958965;28;20053;-71
2022/06/02 08:31:34;;;;;;;1.55;1.35;;;;;;;21.25;40.65;102279.63;4953160;28;20511;-73
2022/06/02 08:34:06;;;;;;;6.20;1.70;;;;;;;21.23;40.14;102284.56;4951846;28;20045;-72
2022/06/02 08:36:47;;;;;;;2.15;1.13;;;;;;;19.85;40.24;102287.84;4964635;28;20058;-74
2022/06/02 08:39:31;;;;;;;3.72;1.45;;;;;;;20.26;40.35;102297.44;4966695;28;20553;-74
2022/06/02 08:42:22;;;;;;;3.20;1.55;;;;;;;22.33;37.02;102285.25;4952733;28;20046;-72
2022/06/02 08:45:26;;;;;;;1.67;1.58;;;;;;;22.03;37.18;102284.31;4963627;28;20039;-72
2022/06/02 08:48:15;;;;;;;3.55;1.95;;;;;;;22.18;37.51;102290.69;4948763;28;20031;-71
2022/06/02 08:51:08;;;;;;;2.17;1.52;;;;;;;21.72;38.85;102292.31;4950245;28;20130;-71
2022/06/02 08:53:52;;;;;;;2.92;1.55;;;;;;;21.81;38.58;102289.94;4959122;28;20039;-70
2022/06/02 08:56:43;;;;;;;3.55;1.92;;;;;;;20.78;41.17;102295.84;4950689;28;20575;-72
2022/06/02 08:59:41;;;;;;;4.88;1.52;;;;;;;20.35;40.69;102304.09;4928203;29;20039;-71
2022/06/02 09:02:06;;;;;;;2.47;1.30;;;;;;;20.17;41.09;102302.47;4963514;28;20040;-71
2022/06/02 09:05:22;;;;;;;6.75;2.00;;;;;;;21.10;39.94;102309.59;5028868;28;20124;-71
2022/06/02 09:08:17;;;;;;;1.90;1.50;;;;;;;22.07;37.86;102308.16;4965724;28;20047;-71
2022/06/02 09:11:19;;;;;;;3.22;1.52;;;;;;;21.21;37.91;102331.28;4981170;28;20517;-73
2022/06/02 09:13:47;;;;;;;1.20;1.10;;;;;;;20.37;39.11;102324.63;4968874;28;20177;-73
2022/06/02 09:16:34;;;;;;;4.43;1.70;;;;;;;21.00;39.69;102318.50;4971413;28;20053;-72
2022/06/02 09:19:14;;;;;;;1.98;1.33;;;;;;;21.91;37.67;102328.31;4974850;28;20150;-73
2022/06/02 09:22:14;;;;;;;1.52;1.10;;;;;;;21.75;38.72;102332.00;4968755;28;20137;-72
2022/06/02 09:25:00;;;;;;;1.85;1.10;;;;;;;21.20;37.35;102335.13;4912501;29;20040;-75
2022/06/02 09:27:48;;;;;;;1.92;1.20;;;;;;;21.71;37.17;102331.72;4915630;29;20079;-72
2022/06/02 09:30:57;;;;;;;3.92;1.33;;;;;;;22.26;36.31;102331.25;4912100;29;20501;-72
2022/06/02 09:33:34;;;;;;;2.33;1.40;;;;;;;21.95;35.77;102325.88;4871341;29;20041;-72
2022/06/02 09:36:27;;;;;;;3.17;1.30;;;;;;;22.21;35.49;102324.94;4876375;29;20060;-73
2022/06/02 09:39:01;;;;;;;1.73;1.55;;;;;;;21.41;39.46;102331.47;4874383;29;20037;-73
2022/06/02 09:41:45;;;;;;;3.17;2.00;;;;;;;21.39;38.58;102336.38;4859806;29;20549;-70
2022/06/02 09:44:28;;;;;;;6.18;2.03;;;;;;;22.18;38.34;102331.75;4909190;29;20131;-71
2022/06/02 09:47:22;;;;;;;2.45;1.85;;;;;;;22.66;36.58;102334.16;4912190;29;20146;-71
2022/06/02 09:50:07;;;;;;;5.05;2.05;;;;;;;21.75;37.80;102332.00;4910873;29;20127;-71
2022/06/02 09:52:53;;;;;;;2.17;1.67;;;;;;;21.60;36.48;102324.50;4912420;29;20107;-72
2022/06/02 09:55:51;;;;;;;1.50;1.27;;;;;;;21.39;36.30;102322.69;4912703;29;20073;-71
2022/06/02 09:58:53;;;;;;;4.18;1.70;;;;;;;22.97;33.99;102317.81;4912693;29;20037;-70
2022/06/02 10:01:56;;;;;;;2.72;1.20;;;;;;;22.36;34.70;102322.25;4895555;29;20040;-71
2022/06/02 10:05:00;;;;;;;2.95;1.52;;;;;;;21.99;35.79;102327.81;4912544;29;20521;-72
2022/06/02 10:07:37;;;;;;;4.82;1.55;;;;;;;20.78;37.83;102329.47;4909954;29;20032;-69
2022/06/02 10:10:17;;;;;;;4.40;1.50;;;;;;;21.31;37.05;102320.44;4931397;29;20043;-72
2022/06/02 10:13:08;;;;;;;3.90;1.43;;;;;;;21.83;35.69;102339.75;4931341;29;20522;-73
2022/06/02 10:16:05;;;;;;;5.50;1.52;;;;;;;21.36;35.09;102319.66;4929762;29;20368;-70
2022/06/02 10:18:54;;;;;;;1.20;1.10;;;;;;;21.94;34.90;102316.00;4930312;29;20043;-71
2022/06/02 10:21:44;;;;;;;4.55;1.63;;;;;;;22.58;35.03;102320.19;4930621;29;20551;-69
2022/06/02 10:24:44;;;;;;;1.58;1.20;;;;;;;22.51;35.21;102312.19;4931254;29;20455;-71
2022/06/02 10:27:15;;;;;;;2.20;1.33;;;;;;;21.99;34.66;102310.56;4930595;29;20050;-69
2022/06/02 10:30:03;;;;;;;2.38;1.45;;;;;;;22.37;34.08;102308.28;4929745;29;20092;-71
2022/06/02 10:32:28;;;;;;;3.00;1.52;;;;;;;23.58;32.89;102311.28;4930622;29;20417;-71
2022/06/02 10:35:17;;;;;;;4.57;1.23;;;;;;;22.50;35.49;102326.16;4931575;29;20046;-71
2022/06/02 10:37:56;;;;;;;4.03;1.50;;;;;;;22.78;34.29;102320.22;4960424;28;20056;-70
2022/06/02 10:40:40;;;;;;;3.25;1.30;;;;;;;21.82;36.53;102325.25;5030734;28;20029;-72
2022/06/02 10:43:08;;;;;;;1.58;1.35;;;;;;;22.73;34.84;102322.97;5030222;28;20065;-70
2022/06/02 10:45:56;;;;;;;4.25;1.45;;;;;;;22.43;34.88;102322.81;5030950;28;20057;-73
2022/06/02 10:48:39;;;;;;;1.75;1.30;;;;;;;23.38;32.60;102325.00;5030124;28;20072;-73
2022/06/02 10:51:42;;;;;;;4.28;1.63;;;;;;;22.03;34.78;102322.63;5030188;28;20065;-72
2022/06/02 10:54:16;;;;;;;2.75;1.50;;;;;;;23.81;33.05;102301.63;5030376;28;20056;-71
2022/06/02 10:57:04;;;;;;;2.40;1.50;;;;;;;22.72;34.05;102309.53;5030837;28;20037;-74
2022/06/02 11:00:03;;;;;;;2.80;1.27;;;;;;;23.01;34.91;102308.78;5026189;28;20129;-74
2022/06/02 11:02:59;;;;;;;1.98;1.02;;;;;;;23.29;34.55;102312.91;5028476;28;20092;-72
2022/06/02 11:05:42;;;;;;;2.05;1.10;;;;;;;23.60;32.20;102300.00;5030841;28;20038;-73
2022/06/02 11:08:25;;;;;;;4.72;1.65;;;;;;;23.60;33.45;102298.09;5025459;28;20029;-70
2022/06/02 11:11:18;;;;;;;1.13;0.90;;;;;;;23.10;33.55;102307.13;5031062;28;20799;-71
2022/06/02 11:13:55;;;;;;;2.20;1.30;;;;;;;23.74;32.34;102303.84;5009446;28;20046;-72
2022/06/02 11:16:39;;;;;;;2.92;1.60;;;;;;;22.97;31.48;102306.84;5029243;28;20037;-71
2022/06/02 11:19:25;;;;;;;1.52;1.23;;;;;;;23.45;31.80;102303.59;5008437;28;20304;-73
2022/06/02 11:22:23;;;;;;;1.73;1.63;;;;;;;23.35;32.76;102298.13;5004717;28;20046;-72
2022/06/02 11:25:08;;;;;;;3.88;1.35;;;;;;;24.51;31.34;102289.59;5015781;28;20091;-72
2022/06/02 11:27:54;;;;;;;2.50;1.20;;;;;;;24.93;29.70;102282.47;5006687;28;20044;-70
2022/06/02 11:30:37;;;;;;;3.25;1.25;;;;;;;26.04;28.89;102289.72;5006722;28;20050;-70
2022/06/02 11:33:30;;;;;;;2.72;1.38;;;;;;;25.64;29.73;102282.72;5009458;28;20030;-70
2022/06/02 11:36:20;;;;;;;3.50;1.52;;;;;;;24.03;31.07;102291.16;5009120;28;20034;-73
2022/06/02 11:39:06;;;;;;;5.00;2.58;;;;;;;23.14;31.18;102288.19;5009773;28;20046;-73
2022/06/02 11:42:08;;;;;;;1.63;1.08;;;;;;;24.22;29.70;102282.03;5014475;28;20038;-71
2022/06/02 11:45:11;;;;;;;3.20;1.42;;;;;;;25.67;29.28;102273.84;5029505;28;20118;-70
2022/06/02 11:47:57;;;;;;;1.23;0.70;;;;;;;25.32;27.63;102271.41;5029806;28;20029;-71
2022/06/02 11:50:37;;;;;;;3.67;0.98;;;;;;;24.26;28.36;102277.59;5026437;28;20045;-74
2022/06/02 11:53:34;;;;;;;1.58;1.15;;;;;;;23.41;29.11;102280.53;5029046;28;20454;-73
2022/06/02 11:56:35;;;;;;;3.30;1.10;;;;;;;24.83;28.10;102282.53;5029887;28;20048;-73
2022/06/02 11:59:30;;;;;;;2.22;1.15;;;;;;;25.00;28.14;102273.91;5007729;28;20081;-72
2022/06/02 12:02:10;;;;;;;3.25;1.10;;;;;;;24.94;27.23;102269.56;5029627;28;20120;-72
2022/06/02 12:05:06;;;;;;;3.20;0.88;;;;;;;24.84;28.04;102261.38;4996211;28;20127;-71
2022/06/02 12:08:33;;;;;;;1.60;1.25;;;;;;;25.29;27.51;102272.00;5006207;28;20117;-71
2022/06/02 12:11:22;;;;;;;2.30;1.05;;;;;;;24.66;28.48;102270.25;4983790;28;20053;-72
2022/06/02 12:14:02;;;;;;;2.00;1.10;;;;;;;24.02;28.41;102271.09;4981728;28;20043;-71
2022/06/02 12:16:57;;;;;;;1.90;1.60;;;;;;;25.16;28.03;102256.97;4981349;28;20058;-71
2022/06/02 12:19:36;;;;;;;2.22;1.13;;;;;;;25.15;28.50;102251.75;4976032;28;20125;-70
2022/06/02 12:22:40;;;;;;;5.53;1.02;;;;;;;25.31;28.27;102250.53;4986170;28;20094;-72
2022/06/02 12:25:32;;;;;;;5.18;1.08;;;;;;;25.12;27.71;102249.56;4984250;28;20038;-72
2022/06/02 12:28:34;;;;;;;1.45;0.93;;;;;;;25.80;25.00;102253.06;4978966;28;20499;-73
2022/06/02 12:31:18;;;;;;;0.93;0.60;;;;;;;25.76;25.75;102257.53;4979941;28;20471;-71
2022/06/02 12:34:05;;;;;;;1.10;1.00;;;;;;;24.49;27.52;102256.88;4985649;28;20042;-71
2022/06/02 12:36:42;;;;;;;1.48;0.82;;;;;;;25.00;26.04;102260.94;4973640;28;20049;-72
2022/06/02 12:39:43;;;;;;;2.40;1.15;;;;;;;25.64;26.31;102260.69;4986016;28;20050;-71
2022/06/02 12:42:33;;;;;;;1.70;0.93;;;;;;;25.07;25.29;102257.88;5009304;28;20049;-73
2022/06/02 12:45:27;;;;;;;3.10;0.95;;;;;;;26.15;25.13;102252.69;5021113;28;20509;-73
2022/06/02 12:48:30;;;;;;;2.58;0.80;;;;;;;26.10;25.71;102250.00;4984561;28;20122;-73
2022/06/02 12:51:05;;;;;;;4.90;0.70;;;;;;;27.11;23.89;102256.78;4980382;28;20042;-71